sensor_id;sensor_type;location;lat;lon;timestamp;P1;durP1;ratioP1;P2;durP2;ratioP2
5175;SDS011;2607;50.934;6.934;2022-12-07T00:01:20;28.57;;;18.37;;
5175;SDS011;2607;50.934;6.934;2022-12-07T00:03:51;34.57;;;18.80;;
5175;SDS011;2607;50.934;6.934;2022-12-07T00:06:18;29.70;;;19.47;;
5175;SDS011;2607;50.934;6.934;2022-12-07T00:08:44;31.03;;;19.30;;
5175;SDS011;2607;50.934;6.934;2022-12-07T00:13:38;23.67;;;17.20;;
5175;SDS011;2607;50.934;6.934;2022-12-07T00:16:08;24.20;;;16.63;;
5175;SDS011;2607;50.934;6.934;2022-12-07T00:18:36;23.80;;;18.20;;
5175;SDS011;2607;50.934;6.934;2022-12-07T00:21:03;25.17;;;18.10;;
5175;SDS011;2607;50.934;6.934;2022-12-07T00:23:34;26.67;;;17.70;;
5175;SDS011;2607;50.934;6.934;2022-12-07T00:26:07;31.40;;;17.47;;
5175;SDS011;2607;50.934;6.934;2022-12-07T00:28:41;27.63;;;19.00;;
5175;SDS011;2607;50.934;6.934;2022-12-07T00:31:11;23.23;;;16.10;;
5175;SDS011;2607;50.934;6.934;2022-12-07T00:33:37;28.93;;;18.20;;
5175;SDS011;2607;50.934;6.934;2022-12-07T00:36:05;23.13;;;17.13;;
5175;SDS011;2607;50.934;6.934;2022-12-07T00:38:36;25.90;;;17.67;;
5175;SDS011;2607;50.934;6.934;2022-12-07T00:41:07;25.07;;;17.40;;
5175;SDS011;2607;50.934;6.934;2022-12-07T00:43:37;25.10;;;17.07;;
5175;SDS011;2607;50.934;6.934;2022-12-07T00:46:04;27.83;;;18.30;;
5175;SDS011;2607;50.934;6.934;2022-12-07T00:48:29;23.37;;;16.23;;
5175;SDS011;2607;50.934;6.934;2022-12-07T00:50:55;26.53;;;17.23;;
5175;SDS011;2607;50.934;6.934;2022-12-07T00:53:21;22.10;;;16.93;;
5175;SDS011;2607;50.934;6.934;2022-12-07T00:55:46;26.27;;;17.80;;
5175;SDS011;2607;50.934;6.934;2022-12-07T00:58:12;23.73;;;17.10;;
5175;SDS011;2607;50.934;6.934;2022-12-07T01:00:38;25.83;;;17.40;;
5175;SDS011;2607;50.934;6.934;2022-12-07T01:03:05;25.70;;;17.57;;
5175;SDS011;2607;50.934;6.934;2022-12-07T01:05:33;26.17;;;17.60;;
5175;SDS011;2607;50.934;6.934;2022-12-07T01:07:58;29.00;;;17.87;;
5175;SDS011;2607;50.934;6.934;2022-12-07T01:10:24;26.90;;;18.57;;
5175;SDS011;2607;50.934;6.934;2022-12-07T01:12:50;26.00;;;17.73;;
5175;SDS011;2607;50.934;6.934;2022-12-07T01:15:15;24.80;;;17.67;;
5175;SDS011;2607;50.934;6.934;2022-12-07T01:17:41;23.97;;;17.03;;
5175;SDS011;2607;50.934;6.934;2022-12-07T01:20:07;30.37;;;17.87;;
5175;SDS011;2607;50.934;6.934;2022-12-07T01:22:37;26.17;;;18.03;;
5175;SDS011;2607;50.934;6.934;2022-12-07T01:25:03;24.53;;;16.70;;
5175;SDS011;2607;50.934;6.934;2022-12-07T01:27:29;28.10;;;18.60;;
5175;SDS011;2607;50.934;6.934;2022-12-07T01:29:55;23.50;;;17.93;;
5175;SDS011;2607;50.934;6.934;2022-12-07T01:32:21;25.77;;;18.73;;
5175;SDS011;2607;50.934;6.934;2022-12-07T01:34:47;24.77;;;18.23;;
5175;SDS011;2607;50.934;6.934;2022-12-07T01:37:13;31.23;;;18.70;;
5175;SDS011;2607;50.934;6.934;2022-12-07T01:39:38;22.97;;;17.30;;
5175;SDS011;2607;50.934;6.934;2022-12-07T01:42:04;27.87;;;17.87;;
5175;SDS011;2607;50.934;6.934;2022-12-07T01:44:30;31.30;;;19.57;;
5175;SDS011;2607;50.934;6.934;2022-12-07T01:47:00;27.53;;;18.70;;
5175;SDS011;2607;50.934;6.934;2022-12-07T01:49:35;28.60;;;18.30;;
5175;SDS011;2607;50.934;6.934;2022-12-07T01:54:38;25.83;;;18.23;;
5175;SDS011;2607;50.934;6.934;2022-12-07T01:57:03;23.33;;;18.30;;
5175;SDS011;2607;50.934;6.934;2022-12-07T01:59:31;27.10;;;18.27;;
5175;SDS011;2607;50.934;6.934;2022-12-07T02:01:58;25.03;;;18.07;;
5175;SDS011;2607;50.934;6.934;2022-12-07T02:04:26;30.93;;;18.37;;
5175;SDS011;2607;50.934;6.934;2022-12-07T02:06:52;24.67;;;18.93;;
5175;SDS011;2607;50.934;6.934;2022-12-07T02:09:19;28.40;;;18.40;;
5175;SDS011;2607;50.934;6.934;2022-12-07T02:11:45;24.53;;;18.10;;
5175;SDS011;2607;50.934;6.934;2022-12-07T02:14:10;31.70;;;19.87;;
5175;SDS011;2607;50.934;6.934;2022-12-07T02:19:30;23.70;;;17.80;;
5175;SDS011;2607;50.934;6.934;2022-12-07T02:25:33;24.17;;;18.27;;
5175;SDS011;2607;50.934;6.934;2022-12-07T02:31:00;28.27;;;17.97;;
5175;SDS011;2607;50.934;6.934;2022-12-07T02:33:35;27.20;;;18.57;;
5175;SDS011;2607;50.934;6.934;2022-12-07T02:36:10;23.80;;;17.10;;
5175;SDS011;2607;50.934;6.934;2022-12-07T02:39:31;25.60;;;18.53;;
5175;SDS011;2607;50.934;6.934;2022-12-07T02:41:47;23.63;;;17.70;;
5175;SDS011;2607;50.934;6.934;2022-12-07T02:44:18;22.00;;;16.30;;
5175;SDS011;2607;50.934;6.934;2022-12-07T02:49:44;25.00;;;17.67;;
5175;SDS011;2607;50.934;6.934;2022-12-07T02:52:10;29.30;;;18.17;;
5175;SDS011;2607;50.934;6.934;2022-12-07T02:54:36;24.83;;;17.20;;
5175;SDS011;2607;50.934;6.934;2022-12-07T03:00:01;26.30;;;17.00;;
5175;SDS011;2607;50.934;6.934;2022-12-07T03:07:59;27.47;;;18.97;;
5175;SDS011;2607;50.934;6.934;2022-12-07T03:13:11;24.93;;;18.47;;
5175;SDS011;2607;50.934;6.934;2022-12-07T03:18:43;27.53;;;18.70;;
5175;SDS011;2607;50.934;6.934;2022-12-07T03:21:21;27.33;;;19.70;;
5175;SDS011;2607;50.934;6.934;2022-12-07T03:23:59;29.87;;;19.93;;
5175;SDS011;2607;50.934;6.934;2022-12-07T03:26:32;26.43;;;18.67;;
5175;SDS011;2607;50.934;6.934;2022-12-07T03:29:02;32.23;;;19.57;;
5175;SDS011;2607;50.934;6.934;2022-12-07T03:31:33;26.37;;;19.23;;
5175;SDS011;2607;50.934;6.934;2022-12-07T03:42:03;28.83;;;19.10;;
5175;SDS011;2607;50.934;6.934;2022-12-07T03:44:30;24.70;;;18.33;;
5175;SDS011;2607;50.934;6.934;2022-12-07T03:47:13;29.57;;;21.07;;
5175;SDS011;2607;50.934;6.934;2022-12-07T03:49:58;32.77;;;19.50;;
5175;SDS011;2607;50.934;6.934;2022-12-07T03:52:32;31.57;;;19.70;;
5175;SDS011;2607;50.934;6.934;2022-12-07T03:55:20;28.50;;;19.90;;
5175;SDS011;2607;50.934;6.934;2022-12-07T03:57:55;28.93;;;19.20;;
5175;SDS011;2607;50.934;6.934;2022-12-07T04:00:25;25.90;;;19.43;;
5175;SDS011;2607;50.934;6.934;2022-12-07T04:02:51;26.73;;;19.97;;
5175;SDS011;2607;50.934;6.934;2022-12-07T04:05:18;29.20;;;19.77;;
5175;SDS011;2607;50.934;6.934;2022-12-07T04:07:44;28.20;;;19.33;;
5175;SDS011;2607;50.934;6.934;2022-12-07T04:10:10;31.87;;;19.40;;
5175;SDS011;2607;50.934;6.934;2022-12-07T04:12:36;24.53;;;19.10;;
5175;SDS011;2607;50.934;6.934;2022-12-07T04:15:02;29.23;;;17.93;;
5175;SDS011;2607;50.934;6.934;2022-12-07T04:17:28;28.90;;;18.43;;
5175;SDS011;2607;50.934;6.934;2022-12-07T04:19:53;25.80;;;17.87;;
5175;SDS011;2607;50.934;6.934;2022-12-07T04:22:19;31.20;;;18.97;;
5175;SDS011;2607;50.934;6.934;2022-12-07T04:24:45;25.60;;;18.70;;
5175;SDS011;2607;50.934;6.934;2022-12-07T04:27:10;28.50;;;19.10;;
5175;SDS011;2607;50.934;6.934;2022-12-07T04:29:36;26.27;;;19.13;;
5175;SDS011;2607;50.934;6.934;2022-12-07T04:32:01;26.67;;;19.27;;
5175;SDS011;2607;50.934;6.934;2022-12-07T04:34:27;27.30;;;19.07;;
5175;SDS011;2607;50.934;6.934;2022-12-07T04:36:52;27.40;;;18.83;;
5175;SDS011;2607;50.934;6.934;2022-12-07T04:39:23;25.20;;;18.40;;
5175;SDS011;2607;50.934;6.934;2022-12-07T04:41:50;31.20;;;18.83;;
5175;SDS011;2607;50.934;6.934;2022-12-07T04:44:16;26.00;;;18.73;;
5175;SDS011;2607;50.934;6.934;2022-12-07T04:46:43;31.37;;;20.00;;
5175;SDS011;2607;50.934;6.934;2022-12-07T04:49:09;28.00;;;19.53;;
5175;SDS011;2607;50.934;6.934;2022-12-07T04:51:36;29.20;;;20.20;;
5175;SDS011;2607;50.934;6.934;2022-12-07T04:54:01;32.13;;;18.90;;
5175;SDS011;2607;50.934;6.934;2022-12-07T04:56:27;30.70;;;18.97;;
5175;SDS011;2607;50.934;6.934;2022-12-07T04:58:53;26.00;;;18.07;;
5175;SDS011;2607;50.934;6.934;2022-12-07T05:01:19;24.97;;;18.27;;
5175;SDS011;2607;50.934;6.934;2022-12-07T05:03:45;29.40;;;19.23;;
5175;SDS011;2607;50.934;6.934;2022-12-07T05:06:11;27.27;;;20.23;;
5175;SDS011;2607;50.934;6.934;2022-12-07T05:08:38;27.47;;;18.80;;
5175;SDS011;2607;50.934;6.934;2022-12-07T05:11:04;24.60;;;18.47;;
5175;SDS011;2607;50.934;6.934;2022-12-07T05:13:30;26.63;;;19.10;;
5175;SDS011;2607;50.934;6.934;2022-12-07T05:15:57;29.90;;;19.03;;
5175;SDS011;2607;50.934;6.934;2022-12-07T05:18:23;27.80;;;18.43;;
5175;SDS011;2607;50.934;6.934;2022-12-07T05:20:49;25.30;;;19.07;;
5175;SDS011;2607;50.934;6.934;2022-12-07T05:23:16;22.03;;;17.23;;
5175;SDS011;2607;50.934;6.934;2022-12-07T05:25:41;27.30;;;19.07;;
5175;SDS011;2607;50.934;6.934;2022-12-07T05:28:07;25.30;;;18.13;;
5175;SDS011;2607;50.934;6.934;2022-12-07T05:30:33;23.83;;;18.67;;
5175;SDS011;2607;50.934;6.934;2022-12-07T05:32:58;23.73;;;17.50;;
5175;SDS011;2607;50.934;6.934;2022-12-07T05:35:24;23.40;;;17.70;;
5175;SDS011;2607;50.934;6.934;2022-12-07T05:37:50;26.60;;;17.20;;
5175;SDS011;2607;50.934;6.934;2022-12-07T05:40:15;26.30;;;19.13;;
5175;SDS011;2607;50.934;6.934;2022-12-07T05:42:41;24.07;;;17.20;;
5175;SDS011;2607;50.934;6.934;2022-12-07T05:45:07;23.17;;;16.40;;
5175;SDS011;2607;50.934;6.934;2022-12-07T05:47:34;24.93;;;18.80;;
5175;SDS011;2607;50.934;6.934;2022-12-07T05:50:00;26.33;;;18.47;;
5175;SDS011;2607;50.934;6.934;2022-12-07T05:52:26;23.87;;;18.27;;
5175;SDS011;2607;50.934;6.934;2022-12-07T05:54:52;23.37;;;18.63;;
5175;SDS011;2607;50.934;6.934;2022-12-07T05:57:17;31.93;;;18.20;;
5175;SDS011;2607;50.934;6.934;2022-12-07T05:59:43;24.83;;;18.23;;
5175;SDS011;2607;50.934;6.934;2022-12-07T06:02:10;24.10;;;17.43;;
5175;SDS011;2607;50.934;6.934;2022-12-07T06:04:38;24.13;;;17.37;;
5175;SDS011;2607;50.934;6.934;2022-12-07T06:07:08;26.77;;;18.27;;
5175;SDS011;2607;50.934;6.934;2022-12-07T06:09:35;27.00;;;18.27;;
5175;SDS011;2607;50.934;6.934;2022-12-07T06:12:01;28.43;;;19.73;;
5175;SDS011;2607;50.934;6.934;2022-12-07T06:14:46;26.73;;;17.87;;
5175;SDS011;2607;50.934;6.934;2022-12-07T06:17:11;28.30;;;17.87;;
5175;SDS011;2607;50.934;6.934;2022-12-07T06:19:38;26.60;;;17.90;;
5175;SDS011;2607;50.934;6.934;2022-12-07T06:22:04;25.17;;;18.23;;
5175;SDS011;2607;50.934;6.934;2022-12-07T06:24:30;25.07;;;18.10;;
5175;SDS011;2607;50.934;6.934;2022-12-07T06:26:57;27.10;;;18.87;;
5175;SDS011;2607;50.934;6.934;2022-12-07T06:29:22;30.00;;;19.57;;
5175;SDS011;2607;50.934;6.934;2022-12-07T06:31:48;25.43;;;19.10;;
5175;SDS011;2607;50.934;6.934;2022-12-07T06:34:15;32.73;;;21.13;;
5175;SDS011;2607;50.934;6.934;2022-12-07T06:36:42;29.70;;;18.60;;
5175;SDS011;2607;50.934;6.934;2022-12-07T06:39:09;28.80;;;19.30;;
5175;SDS011;2607;50.934;6.934;2022-12-07T06:41:37;35.17;;;19.20;;
5175;SDS011;2607;50.934;6.934;2022-12-07T06:44:06;30.70;;;18.53;;
5175;SDS011;2607;50.934;6.934;2022-12-07T06:46:32;30.20;;;21.50;;
5175;SDS011;2607;50.934;6.934;2022-12-07T06:48:58;25.00;;;18.70;;
5175;SDS011;2607;50.934;6.934;2022-12-07T06:51:23;29.37;;;19.90;;
5175;SDS011;2607;50.934;6.934;2022-12-07T06:53:49;25.07;;;18.97;;
5175;SDS011;2607;50.934;6.934;2022-12-07T06:56:15;27.07;;;18.60;;
5175;SDS011;2607;50.934;6.934;2022-12-07T06:58:41;27.40;;;19.80;;
5175;SDS011;2607;50.934;6.934;2022-12-07T07:01:10;26.80;;;18.90;;
5175;SDS011;2607;50.934;6.934;2022-12-07T07:03:40;30.60;;;19.40;;
5175;SDS011;2607;50.934;6.934;2022-12-07T07:06:07;27.03;;;17.90;;
5175;SDS011;2607;50.934;6.934;2022-12-07T07:08:33;31.10;;;19.63;;
5175;SDS011;2607;50.934;6.934;2022-12-07T07:10:59;26.00;;;19.63;;
5175;SDS011;2607;50.934;6.934;2022-12-07T07:13:26;30.40;;;19.00;;
5175;SDS011;2607;50.934;6.934;2022-12-07T07:15:52;27.43;;;18.40;;
5175;SDS011;2607;50.934;6.934;2022-12-07T07:18:18;29.40;;;18.53;;
5175;SDS011;2607;50.934;6.934;2022-12-07T07:20:43;28.77;;;19.50;;
5175;SDS011;2607;50.934;6.934;2022-12-07T07:23:09;26.40;;;18.17;;
5175;SDS011;2607;50.934;6.934;2022-12-07T07:25:35;29.90;;;19.03;;
5175;SDS011;2607;50.934;6.934;2022-12-07T07:28:01;31.77;;;19.47;;
5175;SDS011;2607;50.934;6.934;2022-12-07T07:30:26;27.47;;;18.57;;
5175;SDS011;2607;50.934;6.934;2022-12-07T07:32:58;24.83;;;17.47;;
5175;SDS011;2607;50.934;6.934;2022-12-07T07:35:26;23.77;;;16.90;;
5175;SDS011;2607;50.934;6.934;2022-12-07T07:37:52;23.70;;;17.87;;
5175;SDS011;2607;50.934;6.934;2022-12-07T07:40:18;28.40;;;17.07;;
5175;SDS011;2607;50.934;6.934;2022-12-07T07:42:43;27.10;;;18.47;;
5175;SDS011;2607;50.934;6.934;2022-12-07T07:45:13;36.27;;;19.20;;
5175;SDS011;2607;50.934;6.934;2022-12-07T07:47:38;27.00;;;18.93;;
5175;SDS011;2607;50.934;6.934;2022-12-07T07:50:04;27.03;;;19.30;;
5175;SDS011;2607;50.934;6.934;2022-12-07T07:52:30;27.00;;;19.50;;
5175;SDS011;2607;50.934;6.934;2022-12-07T07:54:56;26.23;;;19.20;;
5175;SDS011;2607;50.934;6.934;2022-12-07T07:57:21;24.97;;;19.03;;
5175;SDS011;2607;50.934;6.934;2022-12-07T07:59:47;26.00;;;18.87;;
5175;SDS011;2607;50.934;6.934;2022-12-07T08:02:16;30.43;;;19.77;;
5175;SDS011;2607;50.934;6.934;2022-12-07T08:04:43;26.67;;;18.63;;
5175;SDS011;2607;50.934;6.934;2022-12-07T08:07:10;26.80;;;18.03;;
5175;SDS011;2607;50.934;6.934;2022-12-07T08:09:36;30.40;;;20.23;;
5175;SDS011;2607;50.934;6.934;2022-12-07T08:12:02;30.60;;;18.70;;
5175;SDS011;2607;50.934;6.934;2022-12-07T08:14:28;26.10;;;19.13;;
5175;SDS011;2607;50.934;6.934;2022-12-07T08:16:54;32.13;;;20.40;;
5175;SDS011;2607;50.934;6.934;2022-12-07T08:19:19;26.87;;;17.80;;
5175;SDS011;2607;50.934;6.934;2022-12-07T08:21:45;27.90;;;18.93;;
5175;SDS011;2607;50.934;6.934;2022-12-07T08:24:11;25.70;;;17.63;;
5175;SDS011;2607;50.934;6.934;2022-12-07T08:26:36;24.60;;;18.00;;
5175;SDS011;2607;50.934;6.934;2022-12-07T08:29:02;28.80;;;18.27;;
5175;SDS011;2607;50.934;6.934;2022-12-07T08:31:28;27.00;;;18.63;;
5175;SDS011;2607;50.934;6.934;2022-12-07T08:33:54;27.83;;;18.30;;
5175;SDS011;2607;50.934;6.934;2022-12-07T08:36:20;25.43;;;16.63;;
5175;SDS011;2607;50.934;6.934;2022-12-07T08:38:47;29.60;;;17.77;;
5175;SDS011;2607;50.934;6.934;2022-12-07T08:41:13;22.23;;;15.80;;
5175;SDS011;2607;50.934;6.934;2022-12-07T08:43:39;24.90;;;16.40;;
5175;SDS011;2607;50.934;6.934;2022-12-07T08:46:20;17.27;;;13.83;;
5175;SDS011;2607;50.934;6.934;2022-12-07T08:48:57;20.70;;;14.10;;
5175;SDS011;2607;50.934;6.934;2022-12-07T08:51:26;24.63;;;16.63;;
5175;SDS011;2607;50.934;6.934;2022-12-07T08:53:52;22.07;;;14.57;;
5175;SDS011;2607;50.934;6.934;2022-12-07T08:56:19;22.60;;;14.97;;
5175;SDS011;2607;50.934;6.934;2022-12-07T08:58:45;24.23;;;14.50;;
5175;SDS011;2607;50.934;6.934;2022-12-07T09:01:10;20.27;;;14.43;;
5175;SDS011;2607;50.934;6.934;2022-12-07T09:03:36;17.47;;;14.60;;
5175;SDS011;2607;50.934;6.934;2022-12-07T09:06:02;20.43;;;12.90;;
5175;SDS011;2607;50.934;6.934;2022-12-07T09:08:33;21.47;;;14.50;;
5175;SDS011;2607;50.934;6.934;2022-12-07T09:11:02;18.40;;;13.80;;
5175;SDS011;2607;50.934;6.934;2022-12-07T09:13:28;21.60;;;13.20;;
5175;SDS011;2607;50.934;6.934;2022-12-07T09:15:53;16.30;;;12.30;;
5175;SDS011;2607;50.934;6.934;2022-12-07T09:18:19;17.73;;;13.20;;
5175;SDS011;2607;50.934;6.934;2022-12-07T09:20:44;17.30;;;13.37;;
5175;SDS011;2607;50.934;6.934;2022-12-07T09:23:10;17.13;;;13.20;;
5175;SDS011;2607;50.934;6.934;2022-12-07T09:25:35;19.60;;;12.23;;
5175;SDS011;2607;50.934;6.934;2022-12-07T09:28:01;18.53;;;13.07;;
5175;SDS011;2607;50.934;6.934;2022-12-07T09:30:27;16.67;;;10.40;;
5175;SDS011;2607;50.934;6.934;2022-12-07T09:32:54;19.17;;;10.80;;
5175;SDS011;2607;50.934;6.934;2022-12-07T09:35:20;14.77;;;10.90;;
5175;SDS011;2607;50.934;6.934;2022-12-07T09:37:46;19.67;;;12.10;;
5175;SDS011;2607;50.934;6.934;2022-12-07T09:40:12;18.67;;;11.83;;
5175;SDS011;2607;50.934;6.934;2022-12-07T09:42:39;12.87;;;11.43;;
5175;SDS011;2607;50.934;6.934;2022-12-07T09:45:11;14.03;;;11.43;;
5175;SDS011;2607;50.934;6.934;2022-12-07T09:47:43;15.10;;;11.93;;
5175;SDS011;2607;50.934;6.934;2022-12-07T09:50:14;13.50;;;10.80;;
5175;SDS011;2607;50.934;6.934;2022-12-07T09:52:48;13.57;;;10.80;;
5175;SDS011;2607;50.934;6.934;2022-12-07T09:55:15;13.07;;;9.70;;
5175;SDS011;2607;50.934;6.934;2022-12-07T09:57:46;13.40;;;10.50;;
5175;SDS011;2607;50.934;6.934;2022-12-07T10:00:13;15.07;;;9.93;;
5175;SDS011;2607;50.934;6.934;2022-12-07T10:02:42;15.30;;;10.17;;
5175;SDS011;2607;50.934;6.934;2022-12-07T10:05:35;13.17;;;9.67;;
5175;SDS011;2607;50.934;6.934;2022-12-07T10:08:04;23.93;;;10.00;;
5175;SDS011;2607;50.934;6.934;2022-12-07T10:10:31;14.50;;;8.93;;
5175;SDS011;2607;50.934;6.934;2022-12-07T10:20:46;10.00;;;8.20;;
5175;SDS011;2607;50.934;6.934;2022-12-07T10:23:32;9.10;;;7.70;;
5175;SDS011;2607;50.934;6.934;2022-12-07T10:25:59;10.93;;;7.40;;
5175;SDS011;2607;50.934;6.934;2022-12-07T10:28:33;10.73;;;8.27;;
5175;SDS011;2607;50.934;6.934;2022-12-07T10:31:01;14.03;;;7.70;;
5175;SDS011;2607;50.934;6.934;2022-12-07T10:36:25;14.50;;;9.03;;
5175;SDS011;2607;50.934;6.934;2022-12-07T10:39:15;15.23;;;8.33;;
5175;SDS011;2607;50.934;6.934;2022-12-07T10:41:56;9.60;;;8.07;;
5175;SDS011;2607;50.934;6.934;2022-12-07T10:44:24;9.90;;;7.67;;
5175;SDS011;2607;50.934;6.934;2022-12-07T10:55:26;11.77;;;8.17;;
5175;SDS011;2607;50.934;6.934;2022-12-07T11:01:13;11.83;;;7.90;;
5175;SDS011;2607;50.934;6.934;2022-12-07T11:03:55;14.40;;;9.30;;
5175;SDS011;2607;50.934;6.934;2022-12-07T11:06:44;9.80;;;7.73;;
5175;SDS011;2607;50.934;6.934;2022-12-07T11:17:43;12.30;;;7.60;;
5175;SDS011;2607;50.934;6.934;2022-12-07T11:20:21;11.53;;;7.93;;
5175;SDS011;2607;50.934;6.934;2022-12-07T11:34:00;14.23;;;7.30;;
5175;SDS011;2607;50.934;6.934;2022-12-07T11:41:45;9.97;;;5.80;;
5175;SDS011;2607;50.934;6.934;2022-12-07T11:47:29;6.87;;;5.43;;
5175;SDS011;2607;50.934;6.934;2022-12-07T11:53:03;7.43;;;5.97;;
5175;SDS011;2607;50.934;6.934;2022-12-07T11:55:48;9.27;;;6.60;;
5175;SDS011;2607;50.934;6.934;2022-12-07T12:01:15;9.53;;;6.20;;
5175;SDS011;2607;50.934;6.934;2022-12-07T12:03:56;9.60;;;6.57;;
5175;SDS011;2607;50.934;6.934;2022-12-07T12:06:27;13.90;;;6.73;;
5175;SDS011;2607;50.934;6.934;2022-12-07T12:09:01;13.10;;;6.63;;
5175;SDS011;2607;50.934;6.934;2022-12-07T12:20:01;12.70;;;7.83;;
5175;SDS011;2607;50.934;6.934;2022-12-07T12:25:25;11.17;;;7.40;;
5175;SDS011;2607;50.934;6.934;2022-12-07T12:27:54;11.70;;;7.80;;
5175;SDS011;2607;50.934;6.934;2022-12-07T12:30:28;11.77;;;8.00;;
5175;SDS011;2607;50.934;6.934;2022-12-07T12:38:47;15.80;;;9.00;;
5175;SDS011;2607;50.934;6.934;2022-12-07T12:43:59;11.50;;;8.27;;
5175;SDS011;2607;50.934;6.934;2022-12-07T12:51:42;15.27;;;9.03;;
5175;SDS011;2607;50.934;6.934;2022-12-07T12:54:30;23.77;;;8.67;;
5175;SDS011;2607;50.934;6.934;2022-12-07T12:57:09;15.93;;;8.30;;
5175;SDS011;2607;50.934;6.934;2022-12-07T12:59:59;14.10;;;8.33;;
5175;SDS011;2607;50.934;6.934;2022-12-07T13:02:26;12.30;;;7.47;;
5175;SDS011;2607;50.934;6.934;2022-12-07T13:12:58;9.60;;;7.37;;
5175;SDS011;2607;50.934;6.934;2022-12-07T13:23:32;12.23;;;6.40;;
5175;SDS011;2607;50.934;6.934;2022-12-07T13:26:03;10.77;;;7.10;;
5175;SDS011;2607;50.934;6.934;2022-12-07T13:28:38;10.93;;;7.90;;
5175;SDS011;2607;50.934;6.934;2022-12-07T13:33:58;7.73;;;6.87;;
5175;SDS011;2607;50.934;6.934;2022-12-07T13:36:25;12.87;;;6.93;;
5175;SDS011;2607;50.934;6.934;2022-12-07T13:38:56;11.60;;;8.13;;
5175;SDS011;2607;50.934;6.934;2022-12-07T13:41:24;9.27;;;6.67;;
5175;SDS011;2607;50.934;6.934;2022-12-07T13:44:02;11.83;;;8.00;;
5175;SDS011;2607;50.934;6.934;2022-12-07T13:46:48;9.40;;;7.37;;
5175;SDS011;2607;50.934;6.934;2022-12-07T13:49:21;10.87;;;7.70;;
5175;SDS011;2607;50.934;6.934;2022-12-07T13:51:52;17.33;;;7.40;;
5175;SDS011;2607;50.934;6.934;2022-12-07T13:54:19;11.07;;;6.93;;
5175;SDS011;2607;50.934;6.934;2022-12-07T13:56:50;9.10;;;7.30;;
5175;SDS011;2607;50.934;6.934;2022-12-07T13:59:18;10.20;;;6.87;;
5175;SDS011;2607;50.934;6.934;2022-12-07T14:01:46;12.97;;;6.40;;
5175;SDS011;2607;50.934;6.934;2022-12-07T14:05:05;7.20;;;6.50;;
5175;SDS011;2607;50.934;6.934;2022-12-07T14:12:21;14.80;;;6.43;;
5175;SDS011;2607;50.934;6.934;2022-12-07T14:14:48;8.23;;;6.07;;
5175;SDS011;2607;50.934;6.934;2022-12-07T14:17:15;11.77;;;6.10;;
5175;SDS011;2607;50.934;6.934;2022-12-07T14:19:48;6.90;;;5.77;;
5175;SDS011;2607;50.934;6.934;2022-12-07T14:22:28;8.03;;;6.57;;
5175;SDS011;2607;50.934;6.934;2022-12-07T14:25:00;13.90;;;8.07;;
5175;SDS011;2607;50.934;6.934;2022-12-07T14:27:38;12.20;;;6.77;;
5175;SDS011;2607;50.934;6.934;2022-12-07T14:30:15;11.20;;;7.20;;
5175;SDS011;2607;50.934;6.934;2022-12-07T14:32:42;8.03;;;7.27;;
5175;SDS011;2607;50.934;6.934;2022-12-07T14:35:13;8.27;;;6.30;;
5175;SDS011;2607;50.934;6.934;2022-12-07T14:37:41;14.33;;;6.87;;
5175;SDS011;2607;50.934;6.934;2022-12-07T14:40:12;12.17;;;8.40;;
5175;SDS011;2607;50.934;6.934;2022-12-07T14:42:50;14.43;;;7.43;;
5175;SDS011;2607;50.934;6.934;2022-12-07T14:45:20;10.33;;;6.80;;
5175;SDS011;2607;50.934;6.934;2022-12-07T14:47:47;10.53;;;7.13;;
5175;SDS011;2607;50.934;6.934;2022-12-07T14:50:14;10.90;;;7.60;;
5175;SDS011;2607;50.934;6.934;2022-12-07T14:52:41;10.03;;;6.97;;
5175;SDS011;2607;50.934;6.934;2022-12-07T14:57:53;13.00;;;8.90;;
5175;SDS011;2607;50.934;6.934;2022-12-07T15:00:19;9.50;;;7.73;;
5175;SDS011;2607;50.934;6.934;2022-12-07T15:02:46;10.50;;;8.30;;
5175;SDS011;2607;50.934;6.934;2022-12-07T15:05:13;16.53;;;8.00;;
5175;SDS011;2607;50.934;6.934;2022-12-07T15:07:39;12.80;;;7.80;;
5175;SDS011;2607;50.934;6.934;2022-12-07T15:10:05;10.50;;;8.77;;
5175;SDS011;2607;50.934;6.934;2022-12-07T15:12:32;10.50;;;7.53;;
5175;SDS011;2607;50.934;6.934;2022-12-07T15:14:57;11.90;;;8.43;;
5175;SDS011;2607;50.934;6.934;2022-12-07T15:17:23;23.43;;;9.00;;
5175;SDS011;2607;50.934;6.934;2022-12-07T15:19:48;16.90;;;8.30;;
5175;SDS011;2607;50.934;6.934;2022-12-07T15:22:14;8.80;;;7.40;;
5175;SDS011;2607;50.934;6.934;2022-12-07T15:24:39;11.03;;;7.77;;
5175;SDS011;2607;50.934;6.934;2022-12-07T15:27:05;14.87;;;10.00;;
5175;SDS011;2607;50.934;6.934;2022-12-07T15:29:30;12.10;;;7.50;;
5175;SDS011;2607;50.934;6.934;2022-12-07T15:31:56;15.00;;;8.30;;
5175;SDS011;2607;50.934;6.934;2022-12-07T15:34:23;15.03;;;8.40;;
5175;SDS011;2607;50.934;6.934;2022-12-07T15:36:50;8.63;;;6.60;;
5175;SDS011;2607;50.934;6.934;2022-12-07T15:39:15;8.63;;;5.97;;
5175;SDS011;2607;50.934;6.934;2022-12-07T15:41:41;6.20;;;5.50;;
5175;SDS011;2607;50.934;6.934;2022-12-07T15:44:08;6.60;;;5.90;;
5175;SDS011;2607;50.934;6.934;2022-12-07T15:46:55;9.03;;;5.33;;
5175;SDS011;2607;50.934;6.934;2022-12-07T15:49:21;6.40;;;5.80;;
5175;SDS011;2607;50.934;6.934;2022-12-07T15:51:46;5.87;;;5.33;;
5175;SDS011;2607;50.934;6.934;2022-12-07T15:54:28;6.13;;;5.60;;
5175;SDS011;2607;50.934;6.934;2022-12-07T15:56:54;8.87;;;5.57;;
5175;SDS011;2607;50.934;6.934;2022-12-07T15:59:21;6.80;;;6.10;;
5175;SDS011;2607;50.934;6.934;2022-12-07T16:01:47;10.20;;;7.07;;
5175;SDS011;2607;50.934;6.934;2022-12-07T16:04:12;11.10;;;7.20;;
5175;SDS011;2607;50.934;6.934;2022-12-07T16:06:38;8.33;;;7.37;;
5175;SDS011;2607;50.934;6.934;2022-12-07T16:09:04;8.70;;;7.80;;
5175;SDS011;2607;50.934;6.934;2022-12-07T16:11:30;9.63;;;7.30;;
5175;SDS011;2607;50.934;6.934;2022-12-07T16:13:56;9.37;;;7.10;;
5175;SDS011;2607;50.934;6.934;2022-12-07T16:16:22;8.10;;;7.23;;
5175;SDS011;2607;50.934;6.934;2022-12-07T16:18:48;10.10;;;6.77;;
5175;SDS011;2607;50.934;6.934;2022-12-07T16:21:15;6.97;;;6.37;;
5175;SDS011;2607;50.934;6.934;2022-12-07T16:23:41;6.43;;;5.50;;
5175;SDS011;2607;50.934;6.934;2022-12-07T16:26:10;7.43;;;5.07;;
5175;SDS011;2607;50.934;6.934;2022-12-07T16:28:40;9.30;;;5.30;;
5175;SDS011;2607;50.934;6.934;2022-12-07T16:31:06;7.47;;;5.80;;
5175;SDS011;2607;50.934;6.934;2022-12-07T16:33:34;5.30;;;4.80;;
5175;SDS011;2607;50.934;6.934;2022-12-07T16:36:01;5.37;;;4.97;;
5175;SDS011;2607;50.934;6.934;2022-12-07T16:38:28;4.20;;;3.80;;
5175;SDS011;2607;50.934;6.934;2022-12-07T16:40:53;3.73;;;3.53;;
5175;SDS011;2607;50.934;6.934;2022-12-07T16:43:19;3.33;;;3.13;;
5175;SDS011;2607;50.934;6.934;2022-12-07T16:45:45;4.80;;;3.40;;
5175;SDS011;2607;50.934;6.934;2022-12-07T16:48:12;3.80;;;3.60;;
5175;SDS011;2607;50.934;6.934;2022-12-07T16:50:39;3.40;;;3.20;;
5175;SDS011;2607;50.934;6.934;2022-12-07T16:53:06;4.00;;;3.20;;
5175;SDS011;2607;50.934;6.934;2022-12-07T16:55:42;3.77;;;3.47;;
5175;SDS011;2607;50.934;6.934;2022-12-07T16:58:09;5.13;;;4.00;;
5175;SDS011;2607;50.934;6.934;2022-12-07T17:00:39;7.23;;;4.07;;
5175;SDS011;2607;50.934;6.934;2022-12-07T17:03:05;4.43;;;4.00;;
5175;SDS011;2607;50.934;6.934;2022-12-07T17:05:31;7.40;;;3.80;;
5175;SDS011;2607;50.934;6.934;2022-12-07T17:07:57;4.60;;;4.17;;
5175;SDS011;2607;50.934;6.934;2022-12-07T17:10:24;4.23;;;4.03;;
5175;SDS011;2607;50.934;6.934;2022-12-07T17:12:50;4.57;;;4.30;;
5175;SDS011;2607;50.934;6.934;2022-12-07T17:15:16;5.53;;;4.93;;
5175;SDS011;2607;50.934;6.934;2022-12-07T17:17:43;6.33;;;5.27;;
5175;SDS011;2607;50.934;6.934;2022-12-07T17:20:15;8.03;;;4.73;;
5175;SDS011;2607;50.934;6.934;2022-12-07T17:22:42;5.23;;;4.83;;
5175;SDS011;2607;50.934;6.934;2022-12-07T17:25:08;10.73;;;5.10;;
5175;SDS011;2607;50.934;6.934;2022-12-07T17:27:34;6.13;;;5.53;;
5175;SDS011;2607;50.934;6.934;2022-12-07T17:30:01;8.03;;;5.60;;
5175;SDS011;2607;50.934;6.934;2022-12-07T17:32:29;5.90;;;5.40;;